createdAt,value
2017-02-12T00:00:13.279Z,-0.74
2017-02-12T00:01:12.857Z,-0.62
2017-02-12T00:02:13.232Z,-0.62
2017-02-12T00:03:12.814Z,-0.7
2017-02-12T00:04:13.196Z,-0.56
2017-02-12T00:05:12.776Z,-0.59
2017-02-12T00:06:12.767Z,-0.59
2017-02-12T00:07:13.147Z,-0.59
2017-02-12T00:08:13.127Z,-0.51
2017-02-12T00:09:12.707Z,-0.59
2017-02-12T00:10:13.111Z,-0.51
2017-02-12T00:11:12.687Z,-0.56
2017-02-12T00:12:13.067Z,-0.59
2017-02-12T00:13:12.647Z,-0.54
2017-02-12T00:14:12.628Z,-0.58
2017-02-12T00:15:12.600Z,-0.58
2017-02-12T00:16:12.602Z,-0.51
2017-02-12T00:17:12.573Z,-0.48
2017-02-12T00:18:12.562Z,-0.56
2017-02-12T00:19:12.533Z,-0.52
2017-02-12T00:20:12.916Z,-0.55
2017-02-12T00:21:12.506Z,-0.45
2017-02-12T00:22:12.488Z,-0.46
2017-02-12T00:23:12.463Z,-0.51
2017-02-12T00:24:12.844Z,-0.46
2017-02-12T00:25:12.840Z,-0.54
2017-02-12T00:26:12.825Z,-0.48
2017-02-12T00:27:12.406Z,-0.48
2017-02-12T00:28:12.778Z,-0.51
2017-02-12T00:29:12.363Z,-0.51
2017-02-12T00:30:12.350Z,-0.51
2017-02-12T00:31:12.739Z,-0.46
2017-02-12T00:32:12.707Z,-0.49
2017-02-12T00:33:12.302Z,-0.51
2017-02-12T00:34:12.681Z,-0.46
2017-02-12T00:35:12.261Z,-0.48
2017-02-12T00:36:12.650Z,-0.46
2017-02-12T00:37:12.629Z,-0.51
2017-02-12T00:38:12.611Z,-0.48
2017-02-12T00:39:12.596Z,-0.43
2017-02-12T00:40:12.586Z,-0.41
2017-02-12T00:41:12.153Z,-0.51
2017-02-12T00:42:12.538Z,-0.51
2017-02-12T00:43:12.573Z,-0.43
2017-02-12T00:44:12.509Z,-0.51
2017-02-12T00:45:12.482Z,-0.45
2017-02-12T00:46:12.461Z,-0.54
2017-02-12T00:47:12.494Z,-0.56
2017-02-12T00:48:12.431Z,-0.59
2017-02-12T00:49:12.419Z,-0.7
2017-02-12T00:50:12.396Z,-0.55
2017-02-12T00:51:12.384Z,-0.62
2017-02-12T00:52:12.367Z,-0.55
2017-02-12T00:53:12.363Z,-0.54
2017-02-12T00:54:11.928Z,-0.58
2017-02-12T00:55:12.315Z,-0.54
2017-02-12T00:56:12.303Z,-0.56
2017-02-12T00:57:12.274Z,-0.54
2017-02-12T00:58:12.259Z,-0.56
2017-02-12T00:59:12.242Z,-0.56
2017-02-12T01:00:12.216Z,-0.58
2017-02-12T01:01:12.214Z,-0.58
2017-02-12T01:02:12.184Z,-0.49
2017-02-12T01:03:12.172Z,-0.54
2017-02-12T01:04:12.150Z,-0.48
2017-02-12T01:05:12.147Z,-0.36
2017-02-12T01:06:12.123Z,-0.48
2017-02-12T01:07:12.101Z,-0.45
2017-02-12T01:08:12.082Z,-0.51
2017-02-12T01:09:12.066Z,-0.51
2017-02-12T01:10:12.048Z,-0.51
2017-02-12T01:11:12.033Z,-0.48
2017-02-12T01:12:11.615Z,-0.38
2017-02-12T01:13:11.997Z,-0.43
2017-02-12T01:14:11.983Z,-0.43
2017-02-12T01:15:11.975Z,-0.46
2017-02-12T01:16:11.949Z,-0.45
2017-02-12T01:17:11.932Z,-0.49
2017-02-12T01:18:11.512Z,-0.4
2017-02-12T01:19:11.892Z,-0.49
2017-02-12T01:20:11.066Z,-0.51
2017-02-12T01:21:11.856Z,-0.45
2017-02-12T01:22:11.851Z,-0.46
2017-02-12T01:23:11.817Z,-0.49
2017-02-12T01:24:11.403Z,-0.55
2017-02-12T01:25:11.793Z,-0.52
2017-02-12T01:26:11.766Z,-0.73
2017-02-12T01:27:11.459Z,-0.55
2017-02-12T01:28:11.746Z,-0.52
2017-02-12T01:29:11.717Z,-0.52
2017-02-12T01:30:11.705Z,-0.55
2017-02-12T01:31:11.685Z,-0.59
2017-02-12T01:32:11.666Z,-0.69
2017-02-12T01:33:11.657Z,-0.55
2017-02-12T01:34:11.231Z,-0.69
2017-02-12T01:35:11.624Z,-0.7
2017-02-12T01:36:11.598Z,-0.55
2017-02-12T01:37:11.576Z,-0.69
2017-02-12T01:38:11.556Z,-0.55
2017-02-12T01:39:11.146Z,-0.52
2017-02-12T01:40:11.128Z,-0.61
2017-02-12T01:41:11.506Z,-0.52
2017-02-12T01:42:11.493Z,-0.52
2017-02-12T01:43:11.470Z,-0.61
2017-02-12T01:44:11.463Z,-0.54
2017-02-12T01:45:11.434Z,-0.59
2017-02-12T01:46:11.420Z,-0.48
2017-02-12T01:47:11.418Z,-0.52
2017-02-12T01:48:11.395Z,-0.59
2017-02-12T01:49:11.374Z,-0.51
2017-02-12T01:50:11.349Z,-0.52
2017-02-12T01:51:11.330Z,-0.48
2017-02-12T01:52:10.911Z,-0.54
2017-02-12T01:53:11.296Z,-0.55
2017-02-12T01:54:10.880Z,-0.46
2017-02-12T01:55:11.271Z,-0.51
2017-02-12T01:56:11.242Z,-0.51
2017-02-12T01:57:11.224Z,-0.54
2017-02-12T01:58:11.226Z,-0.48
2017-02-12T01:59:11.195Z,-0.51
2017-02-12T02:00:11.182Z,-0.52
2017-02-12T02:01:10.755Z,-0.48
2017-02-12T02:02:11.138Z,-0.51
2017-02-12T02:03:11.132Z,-0.49
2017-02-12T02:04:11.113Z,-0.43
2017-02-12T02:05:11.088Z,-0.49
2017-02-12T02:06:11.074Z,-0.48
2017-02-12T02:07:11.051Z,-0.55
2017-02-12T02:08:11.044Z,-0.55
2017-02-12T02:09:11.022Z,-0.59
2017-02-12T02:10:11.008Z,-0.67
2017-02-12T02:11:10.981Z,-0.64
2017-02-12T02:12:10.968Z,-0.66
2017-02-12T02:13:10.956Z,-0.67
2017-02-12T02:14:10.531Z,-0.62
2017-02-12T02:15:10.512Z,-0.66
2017-02-12T02:16:10.493Z,-0.59
2017-02-12T02:17:10.885Z,-0.7
2017-02-12T02:18:10.863Z,-0.58
2017-02-12T02:19:10.852Z,-0.69
2017-02-12T02:20:10.432Z,-0.69
2017-02-12T02:21:10.421Z,-0.59
2017-02-12T02:22:10.797Z,-0.69
2017-02-12T02:23:10.782Z,-0.7
2017-02-12T02:24:10.757Z,-0.64
2017-02-12T02:25:10.748Z,-0.59
2017-02-12T02:26:10.736Z,-0.58
2017-02-12T02:27:10.309Z,-0.59
2017-02-12T02:28:10.286Z,-0.59
2017-02-12T02:29:10.268Z,-0.55
2017-02-12T02:30:10.668Z,-0.64
2017-02-12T02:31:10.237Z,-0.61
2017-02-12T02:32:10.232Z,-0.69
2017-02-12T02:33:10.597Z,-0.62
2017-02-12T02:34:10.591Z,-0.64
2017-02-12T02:35:10.161Z,-0.67
2017-02-12T02:36:10.151Z,-0.64
2017-02-12T02:37:10.532Z,-0.64
2017-02-12T02:38:10.530Z,-0.64
2017-02-12T02:39:10.099Z,-0.62
2017-02-12T02:40:10.079Z,-0.67
2017-02-12T02:41:10.459Z,-0.66
2017-02-12T02:42:10.448Z,-0.64
2017-02-12T02:43:10.031Z,-0.66
2017-02-12T02:44:10.424Z,-0.58
2017-02-12T02:45:10.398Z,-0.66
2017-02-12T02:46:09.981Z,-0.59
2017-02-12T02:47:10.355Z,-0.64
2017-02-12T02:48:10.338Z,-0.64
2017-02-12T02:49:10.328Z,-0.64
2017-02-12T02:50:10.308Z,-0.72
2017-02-12T02:51:09.888Z,-0.69
2017-02-12T02:52:10.267Z,-0.67
2017-02-12T02:53:10.247Z,-0.64
2017-02-12T02:54:09.827Z,-0.72
2017-02-12T02:55:10.220Z,-0.67
2017-02-12T02:56:10.207Z,-0.66
2017-02-12T02:57:09.793Z,-0.67
2017-02-12T02:58:10.180Z,-0.72
2017-02-12T02:59:09.758Z,-0.66
2017-02-12T03:00:10.145Z,-0.7
2017-02-12T03:01:09.724Z,-0.64
2017-02-12T03:02:10.110Z,-0.62
2017-02-12T03:03:10.100Z,-0.64
2017-02-12T03:04:09.671Z,-0.64
2017-02-12T03:05:10.057Z,-0.67
2017-02-12T03:06:09.623Z,-0.64
2017-02-12T03:07:10.004Z,-0.7
2017-02-12T03:08:10.008Z,-0.73
2017-02-12T03:09:09.585Z,-0.69
2017-02-12T03:10:09.564Z,-0.69
2017-02-12T03:11:09.952Z,-0.62
2017-02-12T03:12:09.531Z,-0.61
2017-02-12T03:13:09.914Z,-0.7
2017-02-12T03:14:09.898Z,-0.74
2017-02-12T03:15:09.891Z,-0.7
2017-02-12T03:16:09.866Z,-0.64
2017-02-12T03:17:09.443Z,-0.69
2017-02-12T03:18:09.828Z,-0.61
2017-02-12T03:19:09.801Z,-0.69
2017-02-12T03:20:09.387Z,-0.66
2017-02-12T03:21:09.374Z,-0.69
2017-02-12T03:22:09.757Z,-0.62
2017-02-12T03:23:09.738Z,-0.62
2017-02-12T03:24:09.320Z,-0.59
2017-02-12T03:25:09.707Z,-0.66
2017-02-12T03:26:09.688Z,-0.64
2017-02-12T03:27:09.662Z,-0.64
2017-02-12T03:28:09.653Z,-0.61
2017-02-12T03:29:09.633Z,-0.66
2017-02-12T03:30:09.611Z,-0.7
2017-02-12T03:31:09.044Z,-0.64
2017-02-12T03:32:08.924Z,-0.64
2017-02-12T03:33:08.894Z,-0.7
2017-02-12T03:34:08.881Z,-0.72
2017-02-12T03:35:09.596Z,-0.64
2017-02-12T03:36:09.507Z,-0.69
2017-02-12T03:37:09.494Z,-0.64
2017-02-12T03:38:09.478Z,-0.82
2017-02-12T03:39:09.460Z,-0.79
2017-02-12T03:40:09.441Z,-0.84
2017-02-12T03:41:09.424Z,-0.79
2017-02-12T03:42:08.999Z,-0.85
2017-02-12T03:43:09.392Z,-0.85
2017-02-12T03:44:09.368Z,-0.85
2017-02-12T03:45:09.358Z,-0.77
2017-02-12T03:46:09.345Z,-0.82
2017-02-12T03:47:08.925Z,-0.8
2017-02-12T03:48:09.296Z,-0.84
2017-02-12T03:49:09.283Z,-0.8
2017-02-12T03:50:09.269Z,-0.84
2017-02-12T03:51:09.244Z,-0.82
2017-02-12T03:52:09.213Z,-0.76
2017-02-12T03:53:09.206Z,-0.84
2017-02-12T03:54:09.198Z,-0.87
2017-02-12T03:55:09.174Z,-0.8
2017-02-12T03:56:08.756Z,-0.82
2017-02-12T03:57:09.148Z,-0.77
2017-02-12T03:58:08.708Z,-0.85
2017-02-12T03:59:09.117Z,-0.89
2017-02-12T04:00:09.093Z,-0.89
2017-02-12T04:01:09.069Z,-0.89
2017-02-12T04:02:09.049Z,-0.84
2017-02-12T04:03:09.035Z,-0.77
2017-02-12T04:04:09.003Z,-0.85
2017-02-12T04:05:08.993Z,-0.87
2017-02-12T04:06:08.975Z,-0.79
2017-02-12T04:07:08.967Z,-0.87
2017-02-12T04:08:08.952Z,-0.8
2017-02-12T04:09:08.927Z,-0.77
2017-02-12T04:10:08.919Z,-0.84
2017-02-12T04:11:08.904Z,-0.77
2017-02-12T04:12:08.072Z,-0.79
2017-02-12T04:13:08.856Z,-0.8
2017-02-12T04:14:08.847Z,-0.73
2017-02-12T04:15:08.823Z,-0.72
2017-02-12T04:16:08.812Z,-0.66
2017-02-12T04:17:08.785Z,-0.72
2017-02-12T04:18:08.766Z,-0.76
2017-02-12T04:19:08.750Z,-0.64
2017-02-12T04:20:08.328Z,-0.67
2017-02-12T04:21:08.724Z,-0.66
2017-02-12T04:22:08.711Z,-0.69
2017-02-12T04:23:08.690Z,-0.66
2017-02-12T04:24:08.667Z,-0.64
2017-02-12T04:25:08.687Z,-0.69
2017-02-12T04:26:08.232Z,-0.62
2017-02-12T04:27:08.616Z,-0.72
2017-02-12T04:28:08.600Z,-0.73
2017-02-12T04:29:08.584Z,-0.7
2017-02-12T04:30:08.559Z,-0.67
2017-02-12T04:31:08.542Z,-0.69
2017-02-12T04:32:08.129Z,-0.72
2017-02-12T04:33:08.507Z,-0.69
2017-02-12T04:34:08.497Z,-0.62
2017-02-12T04:35:08.470Z,-0.7
2017-02-12T04:36:08.459Z,-0.67
2017-02-12T04:37:08.443Z,-0.77
2017-02-12T04:38:08.025Z,-0.62
2017-02-12T04:39:08.408Z,-0.66
2017-02-12T04:40:07.990Z,-0.64
2017-02-12T04:41:08.374Z,-0.7
2017-02-12T04:42:07.950Z,-0.67
2017-02-12T04:43:08.341Z,-0.66
2017-02-12T04:44:08.322Z,-0.66
2017-02-12T04:45:07.894Z,-0.64
2017-02-12T04:46:08.277Z,-0.7
2017-02-12T04:47:08.266Z,-0.69
2017-02-12T04:48:08.252Z,-0.59
2017-02-12T04:49:08.240Z,-0.58
2017-02-12T04:50:07.804Z,-0.59
2017-02-12T04:51:08.192Z,-0.7
2017-02-12T04:52:08.184Z,-0.67
2017-02-12T04:53:08.163Z,-0.73
2017-02-12T04:54:08.139Z,-0.67
2017-02-12T04:55:07.719Z,-0.69
2017-02-12T04:56:08.125Z,-0.69
2017-02-12T04:57:08.078Z,-0.59
2017-02-12T04:58:08.070Z,-0.72
2017-02-12T04:59:08.061Z,-0.61
2017-02-12T05:00:07.632Z,-0.73
2017-02-12T05:01:08.025Z,-0.7
2017-02-12T05:02:08.008Z,-0.8
2017-02-12T05:03:08.033Z,-0.85
2017-02-12T05:04:07.983Z,-0.82
2017-02-12T05:05:07.941Z,-0.79
2017-02-12T05:06:07.534Z,-0.82
2017-02-12T05:07:07.920Z,-0.8
2017-02-12T05:08:07.904Z,-0.76
2017-02-12T05:09:07.883Z,-0.76
2017-02-12T05:10:07.454Z,-0.82
2017-02-12T05:11:07.850Z,-0.79
2017-02-12T05:12:07.837Z,-0.87
2017-02-12T05:13:07.406Z,-0.8
2017-02-12T05:14:07.797Z,-0.79
2017-02-12T05:15:07.769Z,-0.84
2017-02-12T05:16:07.762Z,-0.84
2017-02-12T05:17:07.736Z,-0.79
2017-02-12T05:18:07.722Z,-0.82
2017-02-12T05:19:07.709Z,-0.7
2017-02-12T05:20:07.691Z,-0.64
2017-02-12T05:21:07.669Z,-0.64
2017-02-12T05:22:07.251Z,-0.77
2017-02-12T05:23:07.636Z,-0.8
2017-02-12T05:24:07.614Z,-0.82
2017-02-12T05:25:07.605Z,-0.8
2017-02-12T05:26:07.578Z,-0.76
2017-02-12T05:27:07.597Z,-0.7
2017-02-12T05:28:07.148Z,-0.73
2017-02-12T05:29:07.527Z,-0.76
2017-02-12T05:30:07.516Z,-0.77
2017-02-12T05:31:07.490Z,-0.67
2017-02-12T05:32:07.484Z,-0.67
2017-02-12T05:33:07.464Z,-0.66
2017-02-12T05:34:07.042Z,-0.7
2017-02-12T05:35:07.420Z,-0.62
2017-02-12T05:36:07.412Z,-0.67
2017-02-12T05:37:07.394Z,-0.72
2017-02-12T05:38:07.369Z,-0.69
2017-02-12T05:39:07.351Z,-0.72
2017-02-12T05:40:07.346Z,-0.67
2017-02-12T05:41:07.323Z,-0.73
2017-02-12T05:42:07.301Z,-0.84
2017-02-12T05:43:07.281Z,-0.73
2017-02-12T05:44:07.267Z,-0.82
2017-02-12T05:45:07.243Z,-0.82
2017-02-12T05:46:07.229Z,-0.8
2017-02-12T05:47:07.210Z,-0.85
2017-02-12T05:48:07.199Z,-0.79
2017-02-12T05:49:07.226Z,-0.74
2017-02-12T05:50:07.167Z,-0.8
2017-02-12T05:51:07.132Z,-0.82
2017-02-12T05:52:07.119Z,-0.89
2017-02-12T05:53:07.111Z,-0.89
2017-02-12T05:54:07.097Z,-0.85
2017-02-12T05:55:07.078Z,-0.87
2017-02-12T05:56:07.059Z,-0.87
2017-02-12T05:57:07.028Z,-0.87
2017-02-12T05:58:07.019Z,-0.91
2017-02-12T05:59:07.007Z,-0.85
2017-02-12T06:00:06.990Z,-0.92
2017-02-12T06:01:06.972Z,-0.85
2017-02-12T06:02:06.952Z,-0.92
2017-02-12T06:03:06.938Z,-0.89
2017-02-12T06:04:06.921Z,-0.84
2017-02-12T06:05:06.889Z,-0.82
2017-02-12T06:06:06.866Z,-0.92
2017-02-12T06:07:06.864Z,-0.92
2017-02-12T06:08:06.838Z,-0.8
2017-02-12T06:09:06.830Z,-0.74
2017-02-12T06:10:06.816Z,-0.8
2017-02-12T06:11:06.788Z,-0.8
2017-02-12T06:12:06.776Z,-0.8
2017-02-12T06:13:06.759Z,-0.79
2017-02-12T06:14:06.734Z,-0.87
2017-02-12T06:15:06.716Z,-0.84
2017-02-12T06:16:06.703Z,-0.79
2017-02-12T06:17:06.699Z,-0.77
2017-02-12T06:18:06.269Z,-0.69
2017-02-12T06:19:06.652Z,-0.7
2017-02-12T06:20:06.636Z,-0.72
2017-02-12T06:21:06.619Z,-0.7
2017-02-12T06:22:06.601Z,-0.69
2017-02-12T06:23:06.584Z,-0.69
2017-02-12T06:24:06.569Z,-0.66
2017-02-12T06:25:06.552Z,-0.69
2017-02-12T06:26:06.728Z,-0.7
2017-02-12T06:27:06.110Z,-0.72
2017-02-12T06:28:06.531Z,-0.7
2017-02-12T06:29:06.480Z,-0.73
2017-02-12T06:30:06.461Z,-0.61
2017-02-12T06:31:06.437Z,-0.59
2017-02-12T06:32:06.422Z,-0.59
2017-02-12T06:33:06.398Z,-0.7
2017-02-12T06:34:06.393Z,-0.66
2017-02-12T06:35:06.364Z,-0.66
2017-02-12T06:36:06.364Z,-0.62
2017-02-12T06:37:06.339Z,-0.66
2017-02-12T06:38:06.320Z,-0.67
2017-02-12T06:39:06.295Z,-0.73
2017-02-12T06:40:05.880Z,-0.69
2017-02-12T06:41:06.260Z,-0.7
2017-02-12T06:42:05.848Z,-0.64
2017-02-12T06:43:06.229Z,-0.69
2017-02-12T06:44:06.214Z,-0.64
2017-02-12T06:45:05.787Z,-0.66
2017-02-12T06:46:06.188Z,-0.64
2017-02-12T06:47:06.157Z,-0.69
2017-02-12T06:48:06.140Z,-0.67
2017-02-12T06:49:06.129Z,-0.66
2017-02-12T06:50:05.708Z,-0.7
2017-02-12T06:51:06.092Z,-0.67
2017-02-12T06:52:06.056Z,-0.67
2017-02-12T06:53:06.048Z,-0.66
2017-02-12T06:54:06.037Z,-0.7
2017-02-12T06:55:06.013Z,-0.66
2017-02-12T06:56:05.998Z,-0.73
2017-02-12T06:57:05.981Z,-0.55
2017-02-12T06:58:05.971Z,-0.59
2017-02-12T06:59:05.946Z,-0.55
2017-02-12T07:00:05.531Z,-0.49
2017-02-12T07:01:05.907Z,-0.38
2017-02-12T07:02:05.895Z,-0.51
2017-02-12T07:03:05.472Z,-0.43
2017-02-12T07:04:05.855Z,-0.52
2017-02-12T07:05:05.850Z,-0.52
2017-02-12T07:06:05.830Z,-0.49
2017-02-12T07:07:05.798Z,-0.55
2017-02-12T07:08:05.790Z,-0.43
2017-02-12T07:09:05.775Z,-0.45
2017-02-12T07:10:05.354Z,-0.41
2017-02-12T07:11:05.746Z,-0.4
2017-02-12T07:12:05.718Z,-0.45
2017-02-12T07:13:05.702Z,-0.38
2017-02-12T07:14:05.685Z,-0.28
2017-02-12T07:15:05.295Z,-0.23
2017-02-12T07:16:05.651Z,-0.3
2017-02-12T07:17:05.639Z,-0.31
2017-02-12T07:18:05.645Z,-0.28
2017-02-12T07:19:05.603Z,-0.36
2017-02-12T07:20:05.589Z,-0.33
2017-02-12T07:21:05.574Z,-0.34
2017-02-12T07:22:05.557Z,-0.23
2017-02-12T07:23:05.530Z,-0.23
2017-02-12T07:24:05.517Z,-0.22
2017-02-12T07:25:05.502Z,-0.27
2017-02-12T07:26:05.483Z,-0.22
2017-02-12T07:27:05.471Z,-0.2
2017-02-12T07:28:05.455Z,-0.13
2017-02-12T07:29:05.018Z,-0.04
2017-02-12T07:30:05.420Z,-0.1
2017-02-12T07:31:05.401Z,-0.07
2017-02-12T07:32:05.383Z,-0.01
2017-02-12T07:33:05.360Z,0.03
2017-02-12T07:34:05.335Z,0.01
2017-02-12T07:35:05.320Z,0.01
2017-02-12T07:36:05.308Z,0.06
2017-02-12T07:37:05.289Z,0.06
2017-02-12T07:38:05.265Z,0.06
2017-02-12T07:39:05.263Z,0.14
2017-02-12T07:40:05.242Z,0.01
2017-02-12T07:41:05.230Z,0.13
2017-02-12T07:42:05.193Z,0.13
2017-02-12T07:43:05.193Z,0.08
2017-02-12T07:44:05.160Z,-0.02
2017-02-12T07:45:05.157Z,0.1
2017-02-12T07:46:05.121Z,0.17
2017-02-12T07:47:05.115Z,0.2
2017-02-12T07:48:05.109Z,0.28
2017-02-12T07:49:05.081Z,0.34
2017-02-12T07:50:04.664Z,0.31
2017-02-12T07:51:05.054Z,0.34
2017-02-12T07:52:05.096Z,0.37
2017-02-12T07:53:04.350Z,0.34
2017-02-12T07:54:04.338Z,0.32
2017-02-12T07:55:04.989Z,0.38
2017-02-12T07:56:04.955Z,0.34
2017-02-12T07:57:04.952Z,0.39
2017-02-12T07:58:04.938Z,0.39
2017-02-12T07:59:04.922Z,0.44
2017-02-12T08:00:04.903Z,0.39
2017-02-12T08:01:04.884Z,0.48
2017-02-12T08:02:04.870Z,0.52
2017-02-12T08:03:04.844Z,0.47
2017-02-12T08:04:04.830Z,0.56
2017-02-12T08:05:04.811Z,0.66
2017-02-12T08:06:04.803Z,0.76
2017-02-12T08:07:04.786Z,0.89
2017-02-12T08:08:04.777Z,0.86
2017-02-12T08:09:04.759Z,0.92
2017-02-12T08:10:04.736Z,0.9
2017-02-12T08:11:04.724Z,1.03
2017-02-12T08:12:04.304Z,1.1
2017-02-12T08:13:04.683Z,1.1
2017-02-12T08:14:04.651Z,1.14
2017-02-12T08:15:04.657Z,1.11
2017-02-12T08:16:04.639Z,1.15
2017-02-12T08:17:04.610Z,1.1
2017-02-12T08:18:04.609Z,1.18
2017-02-12T08:19:04.583Z,1.28
2017-02-12T08:20:04.158Z,1.28
2017-02-12T08:21:04.549Z,1.28
2017-02-12T08:22:04.534Z,1.2
2017-02-12T08:23:04.123Z,1.4
2017-02-12T08:24:04.496Z,1.4
2017-02-12T08:25:04.470Z,1.36
2017-02-12T08:26:04.472Z,1.28
2017-02-12T08:27:04.446Z,1.2
2017-02-12T08:28:04.438Z,1.32
2017-02-12T08:29:04.424Z,1.28
2017-02-12T08:30:04.412Z,1.38
2017-02-12T08:31:04.398Z,1.4
2017-02-12T08:32:04.412Z,1.47
2017-02-12T08:33:04.355Z,1.53
2017-02-12T08:34:04.347Z,1.51
2017-02-12T08:35:04.318Z,1.58
2017-02-12T08:36:04.310Z,1.58
2017-02-12T08:37:04.288Z,1.53
2017-02-12T08:38:04.275Z,1.61
2017-02-12T08:39:04.255Z,1.66
2017-02-12T08:40:04.248Z,1.58
2017-02-12T08:41:04.232Z,1.65
2017-02-12T08:42:04.214Z,1.74
2017-02-12T08:43:04.191Z,1.71
2017-02-12T08:44:04.186Z,1.69
2017-02-12T08:45:04.169Z,1.79
2017-02-12T08:46:04.151Z,1.82
2017-02-12T08:47:04.125Z,1.83
2017-02-12T08:48:04.113Z,1.83
2017-02-12T08:49:04.100Z,1.86
2017-02-12T08:50:04.088Z,1.89
2017-02-12T08:51:03.679Z,1.84
2017-02-12T08:52:04.053Z,1.82
2017-02-12T08:53:04.031Z,1.86
2017-02-12T08:54:04.034Z,1.83
2017-02-12T08:55:04.006Z,1.69
2017-02-12T08:56:04.000Z,1.69
2017-02-12T08:57:03.977Z,1.72
2017-02-12T08:58:03.950Z,1.61
2017-02-12T08:59:03.936Z,1.53
2017-02-12T09:00:03.920Z,1.5
2017-02-12T09:01:03.912Z,1.48
2017-02-12T09:02:03.896Z,1.57
2017-02-12T09:03:03.873Z,1.57
2017-02-12T09:04:03.874Z,1.58
2017-02-12T09:05:03.851Z,1.54
2017-02-12T09:06:03.830Z,1.6
2017-02-12T09:07:03.819Z,1.69
2017-02-12T09:08:03.796Z,1.71
2017-02-12T09:09:03.423Z,1.87
2017-02-12T09:10:03.413Z,1.83
2017-02-12T09:11:03.942Z,1.98
2017-02-12T09:12:03.739Z,1.97
2017-02-12T09:13:03.773Z,2.01
2017-02-12T09:14:03.705Z,1.93
2017-02-12T09:15:03.693Z,1.92
2017-02-12T09:16:03.273Z,1.82
2017-02-12T09:17:03.657Z,1.69
2017-02-12T09:18:03.642Z,1.76
2017-02-12T09:19:03.636Z,1.66
2017-02-12T09:20:03.599Z,1.58
2017-02-12T09:21:03.612Z,1.66
2017-02-12T09:22:03.608Z,1.71
2017-02-12T09:23:04.320Z,1.75
2017-02-12T09:24:03.569Z,1.76
2017-02-12T09:25:03.143Z,1.84
2017-02-12T09:26:03.541Z,1.84
2017-02-12T09:27:03.514Z,1.94
2017-02-12T09:28:03.750Z,1.93
2017-02-12T09:29:03.205Z,2.01
2017-02-12T09:30:03.448Z,2.01
2017-02-12T09:31:04.504Z,2.06
2017-02-12T09:32:03.481Z,2.08
2017-02-12T09:33:03.417Z,2.2
2017-02-12T09:34:02.995Z,2.3
2017-02-12T09:35:03.557Z,2.31
2017-02-12T09:36:03.340Z,2.33
2017-02-12T09:37:03.111Z,2.38
2017-02-12T09:38:03.344Z,2.4
2017-02-12T09:39:02.531Z,2.31
2017-02-12T09:40:03.317Z,2.34
2017-02-12T09:41:02.893Z,2.45
2017-02-12T09:42:03.285Z,2.49
2017-02-12T09:43:02.854Z,2.49
2017-02-12T09:44:02.855Z,2.51
2017-02-12T09:45:03.239Z,2.6
2017-02-12T09:46:02.949Z,2.48
2017-02-12T09:47:03.206Z,2.58
2017-02-12T09:48:03.180Z,2.55
2017-02-12T09:49:02.770Z,2.62
2017-02-12T09:50:03.144Z,2.63
2017-02-12T09:51:02.877Z,2.78
2017-02-12T09:52:03.111Z,2.77
2017-02-12T09:53:03.092Z,2.85
2017-02-12T09:54:03.091Z,2.83
2017-02-12T09:55:03.075Z,3.02
2017-02-12T09:56:02.653Z,2.95
2017-02-12T09:57:03.038Z,3.11
2017-02-12T09:58:03.025Z,3.21
2017-02-12T09:59:03.002Z,3.14
2017-02-12T10:00:02.989Z,3.17
2017-02-12T10:01:03.435Z,3.16
2017-02-12T10:02:03.095Z,3.16
2017-02-12T10:03:03.496Z,3.13
2017-02-12T10:04:03.363Z,3.27
2017-02-12T10:05:02.952Z,3.19
2017-02-12T10:06:02.900Z,3.24
2017-02-12T10:07:02.879Z,3.16
2017-02-12T10:08:02.880Z,3.16
2017-02-12T10:09:02.906Z,3.19
2017-02-12T10:10:02.447Z,3.03
2017-02-12T10:11:02.832Z,2.93
2017-02-12T10:12:02.865Z,2.99
2017-02-12T10:13:02.790Z,3.05
2017-02-12T10:14:02.786Z,2.93
2017-02-12T10:15:02.769Z,2.96
2017-02-12T10:16:02.758Z,2.9
2017-02-12T10:17:02.737Z,2.87
2017-02-12T10:18:02.737Z,2.77
2017-02-12T10:19:02.718Z,2.81
2017-02-12T10:20:02.702Z,2.76
2017-02-12T10:21:02.718Z,2.81
2017-02-12T10:22:02.674Z,2.8
2017-02-12T10:23:02.655Z,2.85
2017-02-12T10:24:03.119Z,2.81
2017-02-12T10:25:02.664Z,2.72
2017-02-12T10:26:02.609Z,2.8
2017-02-12T10:27:02.585Z,2.77
2017-02-12T10:28:02.583Z,2.76
2017-02-12T10:29:02.565Z,2.73
2017-02-12T10:30:02.555Z,2.76
2017-02-12T10:31:02.539Z,2.81
2017-02-12T10:32:02.526Z,2.78
2017-02-12T10:33:02.511Z,2.73
2017-02-12T10:34:02.495Z,2.77
2017-02-12T10:35:02.457Z,2.67
2017-02-12T10:36:02.468Z,2.66
2017-02-12T10:37:02.440Z,2.6
2017-02-12T10:38:02.427Z,2.54
2017-02-12T10:39:02.009Z,2.59
2017-02-12T10:40:02.399Z,2.58
2017-02-12T10:41:02.379Z,2.67
2017-02-12T10:42:02.374Z,2.84
2017-02-12T10:43:02.354Z,2.87
2017-02-12T10:44:02.336Z,2.9
2017-02-12T10:45:02.321Z,3.05
2017-02-12T10:46:02.316Z,3.13
2017-02-12T10:47:02.302Z,3.2
2017-02-12T10:48:02.287Z,3.26
2017-02-12T10:49:01.863Z,3.46
2017-02-12T10:50:02.256Z,3.46
2017-02-12T10:51:02.243Z,3.53
2017-02-12T10:52:02.230Z,3.51
2017-02-12T10:53:02.222Z,3.53
2017-02-12T10:54:02.189Z,3.61
2017-02-12T10:55:02.174Z,3.6
2017-02-12T10:56:02.152Z,3.69
2017-02-12T10:57:02.152Z,3.75
2017-02-12T10:58:02.137Z,3.79
2017-02-12T10:59:02.121Z,3.78
2017-02-12T11:00:02.116Z,3.84
2017-02-12T11:01:01.690Z,3.82
2017-02-12T11:02:02.086Z,3.81
2017-02-12T11:03:02.480Z,3.81
2017-02-12T11:04:02.056Z,3.66
2017-02-12T11:05:02.033Z,3.69
2017-02-12T11:06:02.664Z,3.61
2017-02-12T11:07:02.009Z,3.58
2017-02-12T11:08:02.001Z,3.76
2017-02-12T11:09:01.986Z,3.69
2017-02-12T11:10:01.961Z,3.61
2017-02-12T11:11:01.959Z,3.51
2017-02-12T11:12:01.933Z,3.48
2017-02-12T11:13:01.924Z,3.48
2017-02-12T11:14:01.910Z,3.39
2017-02-12T11:15:01.886Z,3.43
2017-02-12T11:16:01.881Z,3.43
2017-02-12T11:17:01.859Z,3.42
2017-02-12T11:18:01.454Z,3.45
2017-02-12T11:19:01.430Z,3.43
2017-02-12T11:20:01.820Z,3.43
2017-02-12T11:21:01.817Z,3.37
2017-02-12T11:22:01.396Z,3.27
2017-02-12T11:23:01.777Z,3.17
2017-02-12T11:24:01.760Z,3.23
2017-02-12T11:25:01.755Z,3.17
2017-02-12T11:26:01.733Z,3.21
2017-02-12T11:27:01.727Z,3.2
2017-02-12T11:28:01.714Z,3.3
2017-02-12T11:29:01.703Z,3.32
2017-02-12T11:30:01.685Z,3.32
2017-02-12T11:31:01.662Z,3.29
2017-02-12T11:32:01.648Z,3.32
2017-02-12T11:33:01.641Z,3.48
2017-02-12T11:34:01.221Z,3.42
2017-02-12T11:35:01.610Z,3.45
2017-02-12T11:36:01.639Z,3.48
2017-02-12T11:37:01.583Z,3.42
2017-02-12T11:38:01.569Z,3.39
2017-02-12T11:39:01.555Z,3.42
2017-02-12T11:40:01.532Z,3.48
2017-02-12T11:41:01.529Z,3.43
2017-02-12T11:42:01.502Z,3.51
2017-02-12T11:43:01.498Z,3.42
2017-02-12T11:44:01.078Z,3.46
2017-02-12T11:45:01.460Z,3.49
2017-02-12T11:46:01.458Z,3.51
2017-02-12T11:47:01.468Z,3.48
2017-02-12T11:48:01.428Z,3.49
2017-02-12T11:49:01.412Z,3.51
2017-02-12T11:50:01.396Z,3.48
2017-02-12T11:51:01.375Z,3.56
2017-02-12T11:52:01.370Z,3.69
2017-02-12T11:53:01.356Z,3.67
2017-02-12T11:54:01.341Z,3.79
2017-02-12T11:55:01.325Z,3.86
2017-02-12T11:56:01.304Z,3.93
2017-02-12T11:57:01.297Z,3.9
2017-02-12T11:58:01.285Z,3.9
2017-02-12T11:59:01.255Z,3.99
2017-02-12T12:00:01.249Z,3.99
2017-02-12T12:01:01.236Z,3.96
2017-02-12T12:02:01.216Z,3.94
2017-02-12T12:03:01.218Z,3.96
2017-02-12T12:04:01.200Z,3.9
2017-02-12T12:05:01.175Z,3.92
2017-02-12T12:06:01.170Z,4
2017-02-12T12:07:00.746Z,3.94
2017-02-12T12:08:01.143Z,4.02
2017-02-12T12:09:01.120Z,4.1
2017-02-12T12:10:01.118Z,4.11
2017-02-12T12:11:00.705Z,4.11
2017-02-12T12:12:01.077Z,4.03
2017-02-12T12:13:01.070Z,3.93
2017-02-12T12:14:00.652Z,3.92
2017-02-12T12:15:01.044Z,3.93
2017-02-12T12:16:00.628Z,3.79
2017-02-12T12:17:01.022Z,3.76
2017-02-12T12:18:01.003Z,3.64
2017-02-12T12:19:00.973Z,3.67
2017-02-12T12:20:00.975Z,3.66
2017-02-12T12:21:00.962Z,3.85
2017-02-12T12:22:00.955Z,3.81
2017-02-12T12:23:00.529Z,3.84
2017-02-12T12:24:00.917Z,3.74
2017-02-12T12:25:00.897Z,3.71
2017-02-12T12:26:00.886Z,3.67
2017-02-12T12:27:00.870Z,3.74
2017-02-12T12:28:00.868Z,3.67
2017-02-12T12:29:00.842Z,3.78
2017-02-12T12:30:00.840Z,3.69
2017-02-12T12:31:00.824Z,3.74
2017-02-12T12:32:00.809Z,3.78
2017-02-12T12:33:00.793Z,3.85
2017-02-12T12:34:00.778Z,3.97
2017-02-12T12:35:00.806Z,4.12
2017-02-12T12:36:00.751Z,4.14
2017-02-12T12:37:00.721Z,4.18
2017-02-12T12:38:00.717Z,4.15
2017-02-12T12:39:00.713Z,4.12
2017-02-12T12:40:00.699Z,4.2
2017-02-12T12:41:00.684Z,4.12
2017-02-12T12:42:00.675Z,4.12
2017-02-12T12:43:00.648Z,3.86
2017-02-12T12:44:00.641Z,3.79
2017-02-12T12:45:00.629Z,3.79
2017-02-12T12:46:00.613Z,3.6
2017-02-12T12:47:00.637Z,3.54
2017-02-12T12:48:00.577Z,3.58
2017-02-12T12:49:00.161Z,3.51
2017-02-12T12:50:00.560Z,3.58
2017-02-12T12:51:00.547Z,3.56
2017-02-12T12:52:00.529Z,3.35
2017-02-12T12:53:00.521Z,3.27
2017-02-12T12:54:00.507Z,3.23
2017-02-12T12:55:00.480Z,3.17
2017-02-12T12:56:00.473Z,3.27
2017-02-12T12:57:00.056Z,3.45
2017-02-12T12:58:00.448Z,3.42
2017-02-12T12:59:00.432Z,3.42
2017-02-12T13:00:00.405Z,3.48
2017-02-12T13:01:00.408Z,3.43
2017-02-12T13:02:00.383Z,3.37
2017-02-12T13:02:59.967Z,3.34
2017-02-12T13:04:00.364Z,3.39
2017-02-12T13:05:00.348Z,3.17
2017-02-12T13:06:00.330Z,3.14